createdAt,value
2024-03-27T00:01:12.632Z,100.00
2024-03-27T00:03:40.663Z,100.00
2024-03-27T00:06:08.219Z,100.00
2024-03-27T00:08:36.957Z,100.00
2024-03-27T00:11:04.829Z,100.00
2024-03-27T00:13:32.758Z,100.00
2024-03-27T00:16:00.444Z,100.00
2024-03-27T00:18:28.017Z,100.00
2024-03-27T00:20:55.749Z,100.00
2024-03-27T00:23:23.468Z,100.00
2024-03-27T00:26:00.388Z,100.00
2024-03-27T00:28:28.300Z,100.00
2024-03-27T00:30:55.826Z,100.00
2024-03-27T00:33:24.619Z,100.00
2024-03-27T00:35:59.703Z,100.00
2024-03-27T00:38:27.192Z,100.00
2024-03-27T00:40:54.907Z,100.00
2024-03-27T00:43:22.362Z,100.00
2024-03-27T00:45:50.133Z,100.00
2024-03-27T00:48:17.744Z,100.00
2024-03-27T00:50:45.504Z,100.00
2024-03-27T00:53:13.165Z,100.00
2024-03-27T00:55:40.897Z,100.00
2024-03-27T00:58:13.983Z,100.00
2024-03-27T04:57:55.087Z,100.00
2024-03-27T05:00:22.891Z,100.00
2024-03-27T05:02:50.318Z,100.00
2024-03-27T05:05:17.866Z,100.00
2024-03-27T05:07:45.614Z,100.00
2024-03-27T05:10:13.353Z,100.00
2024-03-27T05:12:40.860Z,100.00
2024-03-27T05:15:12.525Z,100.00
2024-03-27T06:02:05.231Z,100.00
2024-03-27T06:04:32.981Z,100.00
2024-03-27T06:07:00.479Z,100.00
2024-03-27T06:09:29.969Z,100.00
2024-03-27T06:11:57.531Z,100.00
2024-03-27T06:14:25.258Z,100.00
2024-03-27T06:16:52.914Z,100.00
2024-03-27T06:19:20.353Z,100.00
2024-03-27T06:21:51.107Z,100.00
2024-03-27T06:24:23.201Z,100.00
2024-03-27T06:26:50.803Z,100.00
2024-03-27T06:29:20.607Z,100.00
2024-03-27T06:31:48.264Z,100.00
2024-03-27T06:34:15.891Z,100.00
2024-03-27T06:36:43.488Z,100.00
2024-03-27T06:39:13.851Z,100.00
2024-03-27T06:41:41.869Z,100.00
2024-03-27T06:44:10.099Z,100.00
2024-03-27T06:46:37.967Z,100.00
2024-03-27T06:49:19.059Z,100.00
2024-03-27T06:51:48.042Z,100.00
2024-03-27T06:54:15.531Z,100.00
2024-03-27T06:56:45.110Z,100.00
2024-03-27T06:59:12.974Z,100.00
2024-03-27T07:01:40.525Z,100.00
2024-03-27T07:04:08.247Z,100.00
2024-03-27T07:06:35.845Z,100.00
2024-03-27T07:09:07.168Z,100.00
2024-03-27T07:11:34.712Z,100.00
2024-03-27T07:14:02.479Z,100.00
2024-03-27T07:16:30.229Z,100.00
2024-03-27T07:18:57.675Z,100.00
2024-03-27T07:21:25.595Z,99.47
2024-03-27T07:23:53.666Z,94.26
2024-03-27T07:26:21.122Z,90.77
2024-03-27T07:28:49.151Z,90.08
2024-03-27T07:31:16.512Z,89.63
2024-03-27T07:33:46.112Z,86.53
2024-03-27T07:36:14.397Z,86.36
2024-03-27T07:38:42.090Z,86.63
2024-03-27T07:41:13.373Z,84.52
2024-03-27T07:43:41.283Z,84.10
2024-03-27T07:46:09.362Z,82.71
2024-03-27T07:48:36.864Z,79.84
2024-03-27T07:51:04.759Z,77.67
2024-03-27T07:53:34.086Z,74.05
2024-03-27T07:56:04.554Z,74.20
2024-03-27T07:58:33.515Z,72.83
2024-03-27T08:01:01.087Z,71.15
2024-03-27T08:03:30.885Z,71.13
2024-03-27T08:05:59.323Z,68.83
2024-03-27T08:08:26.756Z,69.94
2024-03-27T08:10:57.873Z,68.31
2024-03-27T08:13:26.049Z,66.26
2024-03-27T08:15:53.718Z,64.81
2024-03-27T08:18:21.673Z,62.10
2024-03-27T08:20:55.724Z,59.43
2024-03-27T08:23:23.287Z,58.47
2024-03-27T08:25:51.138Z,57.11
2024-03-27T08:28:19.702Z,56.52
2024-03-27T08:30:49.561Z,56.36
2024-03-27T08:33:17.527Z,56.84
2024-03-27T08:35:45.267Z,55.09
2024-03-27T08:38:14.832Z,53.63
2024-03-27T08:40:42.827Z,51.94
2024-03-27T08:43:11.796Z,52.41
2024-03-27T08:45:40.325Z,52.06
2024-03-27T08:48:08.374Z,52.35
2024-03-27T08:50:36.732Z,50.87
2024-03-27T08:53:04.755Z,51.25
2024-03-27T08:55:33.776Z,50.86
2024-03-27T08:58:01.620Z,50.53
2024-03-27T09:00:29.378Z,50.87
2024-03-27T09:02:58.096Z,50.96
2024-03-27T09:05:25.687Z,49.98
2024-03-27T09:07:53.465Z,49.52
2024-03-27T09:10:21.665Z,49.65
2024-03-27T09:12:49.934Z,50.07
2024-03-27T09:15:21.087Z,48.71
2024-03-27T09:17:48.691Z,49.22
2024-03-27T09:20:18.200Z,49.11
2024-03-27T09:22:46.159Z,48.87
2024-03-27T09:25:14.424Z,48.57
2024-03-27T09:27:42.021Z,48.44
2024-03-27T09:30:09.849Z,48.02
2024-03-27T09:32:39.581Z,48.38
2024-03-27T09:35:07.740Z,48.36
2024-03-27T09:37:36.100Z,48.49
2024-03-27T09:40:05.389Z,48.15
2024-03-27T09:42:33.262Z,47.92
2024-03-27T09:45:01.140Z,47.70
2024-03-27T09:47:28.662Z,47.28
2024-03-27T09:49:56.602Z,46.78
2024-03-27T09:52:24.108Z,45.86
2024-03-27T09:54:53.091Z,45.35
2024-03-27T09:57:20.868Z,45.31
2024-03-27T09:59:48.272Z,44.57
2024-03-27T10:02:16.015Z,44.16
2024-03-27T10:04:43.967Z,44.61
2024-03-27T10:07:11.459Z,44.12
2024-03-27T10:09:39.316Z,44.76
2024-03-27T10:12:07.136Z,44.81
2024-03-27T10:14:34.853Z,44.92
2024-03-27T10:17:02.359Z,45.08
2024-03-27T10:19:30.390Z,44.56
2024-03-27T10:21:58.050Z,45.25
2024-03-27T10:24:25.594Z,44.78
2024-03-27T10:26:53.147Z,44.81
2024-03-27T10:29:21.045Z,45.23
2024-03-27T10:31:48.370Z,45.35
2024-03-27T10:34:16.509Z,44.61
2024-03-27T10:36:43.975Z,44.18
2024-03-27T10:39:16.071Z,43.69
2024-03-27T10:41:45.441Z,43.29
2024-03-27T10:44:13.709Z,43.25
2024-03-27T10:46:41.764Z,43.38
2024-03-27T10:49:09.395Z,43.05
2024-03-27T10:51:36.920Z,42.98
2024-03-27T10:54:04.403Z,43.24
2024-03-27T10:56:32.102Z,43.46
2024-03-27T10:59:00.058Z,43.67
2024-03-27T11:01:27.643Z,43.40
2024-03-27T11:03:55.381Z,43.61
2024-03-27T11:06:22.861Z,43.47
2024-03-27T11:08:50.531Z,43.32
2024-03-27T11:11:18.376Z,43.51
2024-03-27T11:13:46.477Z,43.16
2024-03-27T11:16:13.895Z,42.72
2024-03-27T11:18:45.589Z,42.39
2024-03-27T11:21:13.102Z,42.30
2024-03-27T11:23:43.079Z,41.56
2024-03-27T11:26:10.938Z,41.54
2024-03-27T11:28:38.605Z,41.37
2024-03-27T11:31:06.221Z,41.40
2024-03-27T11:33:33.956Z,40.89
2024-03-27T11:36:01.612Z,40.28
2024-03-27T11:38:29.218Z,40.27
2024-03-27T11:40:57.058Z,40.71
2024-03-27T11:43:24.563Z,40.62
2024-03-27T11:45:52.056Z,40.22
2024-03-27T11:48:19.948Z,39.07
2024-03-27T11:50:50.577Z,39.05
2024-03-27T11:53:18.115Z,39.35
2024-03-27T11:55:45.778Z,39.63
2024-03-27T11:58:13.340Z,39.89
2024-03-27T12:00:42.387Z,39.63
2024-03-27T12:03:12.729Z,39.79
2024-03-27T12:05:46.862Z,40.17
2024-03-27T12:08:16.053Z,39.55
2024-03-27T12:10:43.817Z,39.64
2024-03-27T12:13:16.810Z,39.75
2024-03-27T12:15:49.896Z,39.88
2024-03-27T12:18:19.257Z,40.34
2024-03-27T12:20:47.540Z,40.51
2024-03-27T12:23:15.681Z,40.69
2024-03-27T12:25:46.416Z,40.41
2024-03-27T12:28:14.453Z,40.06
2024-03-27T12:30:42.328Z,39.28
2024-03-27T12:33:10.211Z,39.32
2024-03-27T12:35:37.726Z,38.67
2024-03-27T12:38:05.671Z,38.58
2024-03-27T12:40:33.729Z,38.80
2024-03-27T12:43:01.340Z,38.88
2024-03-27T12:45:29.149Z,38.74
2024-03-27T12:47:56.987Z,38.27
2024-03-27T12:50:25.172Z,37.50
2024-03-27T12:52:52.911Z,37.52
2024-03-27T12:55:20.622Z,37.43
2024-03-27T12:57:51.143Z,38.03
2024-03-27T13:00:19.456Z,38.43
2024-03-27T13:02:47.302Z,38.19
2024-03-27T13:05:15.237Z,37.92
2024-03-27T13:07:43.421Z,38.44
2024-03-27T13:10:11.442Z,39.14
2024-03-27T13:12:39.246Z,39.79
2024-03-27T13:15:07.636Z,40.49
2024-03-27T13:17:35.381Z,40.64
2024-03-27T13:20:04.176Z,41.00
2024-03-27T13:22:32.171Z,40.97
2024-03-27T13:25:00.610Z,40.97
2024-03-27T13:27:28.346Z,41.06
2024-03-27T13:29:56.086Z,41.05
2024-03-27T13:32:24.133Z,40.91
2024-03-27T13:34:51.964Z,40.88
2024-03-27T13:37:20.438Z,40.61
2024-03-27T13:39:47.947Z,40.16
2024-03-27T13:42:16.132Z,39.05
2024-03-27T13:44:43.812Z,38.80
2024-03-27T13:47:11.535Z,38.14
2024-03-27T13:49:39.019Z,37.52
2024-03-27T13:52:06.857Z,37.06
2024-03-27T13:54:36.864Z,36.63
2024-03-27T13:57:04.491Z,35.57
2024-03-27T13:59:32.563Z,36.28
2024-03-27T14:01:59.981Z,36.36
2024-03-27T14:04:30.130Z,36.87
2024-03-27T14:06:59.417Z,37.61
2024-03-27T14:09:26.949Z,37.38
2024-03-27T14:11:54.779Z,37.55
2024-03-27T14:14:22.491Z,37.87
2024-03-27T14:16:49.958Z,37.87
2024-03-27T14:19:17.566Z,37.66
2024-03-27T14:21:45.233Z,37.24
2024-03-27T14:24:13.778Z,37.58
2024-03-27T14:26:41.350Z,37.45
2024-03-27T14:29:08.919Z,37.64
2024-03-27T14:31:36.574Z,37.91
2024-03-27T14:34:05.269Z,38.12
2024-03-27T14:36:33.671Z,38.52
2024-03-27T14:39:01.164Z,39.11
2024-03-27T14:41:28.860Z,39.89
2024-03-27T14:43:56.375Z,40.32
2024-03-27T14:46:23.848Z,40.54
2024-03-27T14:48:51.533Z,40.99
2024-03-27T14:51:20.533Z,41.47
2024-03-27T14:53:48.301Z,41.79
2024-03-27T14:56:15.734Z,42.25
2024-03-27T14:58:43.711Z,42.56
2024-03-27T15:01:11.244Z,42.98
2024-03-27T15:03:38.803Z,43.15
2024-03-27T15:06:06.427Z,43.19
2024-03-27T15:08:36.117Z,43.21
2024-03-27T15:11:03.712Z,43.09
2024-03-27T15:13:31.512Z,42.89
2024-03-27T15:15:58.948Z,43.26
2024-03-27T15:18:26.605Z,43.20
2024-03-27T15:20:54.241Z,43.65
2024-03-27T15:23:21.734Z,44.15
2024-03-27T15:25:49.683Z,44.37
2024-03-27T15:28:17.263Z,45.07
2024-03-27T15:30:44.702Z,45.34
2024-03-27T15:33:12.467Z,45.86
2024-03-27T15:35:41.097Z,46.49
2024-03-27T15:38:08.681Z,46.59
2024-03-27T15:40:36.458Z,47.61
2024-03-27T15:43:04.142Z,47.80
2024-03-27T15:45:31.718Z,48.14
2024-03-27T15:47:59.244Z,48.99
2024-03-27T15:50:26.880Z,49.20
2024-03-27T15:52:54.398Z,49.83
2024-03-27T15:55:21.955Z,50.35
2024-03-27T15:57:49.567Z,50.68
2024-03-27T16:00:17.259Z,51.28
2024-03-27T16:02:44.845Z,52.21
2024-03-27T16:05:15.275Z,52.95
2024-03-27T16:07:42.921Z,53.82
2024-03-27T16:10:11.032Z,54.36
2024-03-27T16:12:38.810Z,55.49
2024-03-27T16:15:08.007Z,56.22
2024-03-27T16:17:35.628Z,57.05
2024-03-27T16:20:03.092Z,57.46
2024-03-27T16:22:30.568Z,58.52
2024-03-27T16:24:58.102Z,59.80
2024-03-27T16:27:26.069Z,60.81
2024-03-27T16:29:53.435Z,61.79
2024-03-27T16:32:21.052Z,62.75
2024-03-27T16:34:48.554Z,63.19
2024-03-27T16:37:16.652Z,64.36
2024-03-27T16:39:44.408Z,65.40
2024-03-27T16:42:12.217Z,66.59
2024-03-27T16:44:39.618Z,67.18
2024-03-27T16:47:08.051Z,68.02
2024-03-27T16:49:35.715Z,68.30
2024-03-27T16:52:03.530Z,68.52
2024-03-27T16:54:31.079Z,69.77
2024-03-27T16:57:00.714Z,71.49
2024-03-27T16:59:29.159Z,72.11
2024-03-27T17:01:56.599Z,72.88
2024-03-27T17:04:24.185Z,74.62
2024-03-27T17:06:51.620Z,75.92
2024-03-27T17:09:19.108Z,76.75
2024-03-27T17:14:47.563Z,85.91
2024-03-27T17:17:14.559Z,82.60
2024-03-27T17:19:41.357Z,82.72
2024-03-27T17:22:08.227Z,84.61
2024-03-27T17:24:35.684Z,85.47
2024-03-27T17:27:02.480Z,86.39
2024-03-27T17:29:29.876Z,89.40
2024-03-27T17:31:57.040Z,90.58
2024-03-27T17:34:24.935Z,90.36
2024-03-27T17:36:51.818Z,91.05
2024-03-27T17:39:20.028Z,92.20
2024-03-27T17:41:46.655Z,92.46
2024-03-27T17:44:13.568Z,96.31
2024-03-27T17:46:40.547Z,96.42
2024-03-27T17:49:07.346Z,97.18
2024-03-27T17:51:34.697Z,98.22
2024-03-27T17:54:01.648Z,98.69
2024-03-27T17:56:30.489Z,99.76
2024-03-27T17:58:57.510Z,100.00
2024-03-27T18:01:24.887Z,100.00
2024-03-27T18:03:52.119Z,100.00
2024-03-27T18:06:18.848Z,100.00
2024-03-27T18:08:45.759Z,100.00
2024-03-27T18:11:12.684Z,100.00
2024-03-27T18:13:39.655Z,100.00
2024-03-27T18:16:07.424Z,100.00
2024-03-27T18:18:34.938Z,100.00
2024-03-27T18:21:01.993Z,100.00
2024-03-27T18:23:29.155Z,100.00
2024-03-27T18:25:56.132Z,100.00
2024-03-27T18:28:25.286Z,100.00
2024-03-27T18:30:59.695Z,100.00
2024-03-27T18:33:26.614Z,100.00
2024-03-27T18:35:53.602Z,100.00
2024-03-27T18:38:20.373Z,100.00
2024-03-27T18:40:47.632Z,100.00
2024-03-27T18:43:14.649Z,100.00
2024-03-27T18:45:45.462Z,100.00
2024-03-27T18:48:13.981Z,100.00
2024-03-27T18:50:41.048Z,100.00
2024-03-27T18:53:08.403Z,100.00
2024-03-27T18:55:35.572Z,100.00
2024-03-27T18:58:05.253Z,100.00
2024-03-27T19:00:32.191Z,100.00
2024-03-27T19:02:59.821Z,100.00
2024-03-27T19:05:27.234Z,100.00
2024-03-27T19:07:54.059Z,100.00
2024-03-27T19:10:21.056Z,100.00
2024-03-27T19:12:48.258Z,100.00
2024-03-27T19:15:15.635Z,100.00
2024-03-27T19:17:46.632Z,100.00
2024-03-27T19:20:13.661Z,100.00
2024-03-27T19:22:40.438Z,100.00
2024-03-27T19:25:08.748Z,100.00
2024-03-27T19:27:35.604Z,100.00
2024-03-27T19:30:03.055Z,100.00
2024-03-27T19:32:30.165Z,100.00
2024-03-27T19:34:57.089Z,100.00
2024-03-27T19:37:24.086Z,100.00
2024-03-27T19:39:51.111Z,100.00
2024-03-27T19:42:18.257Z,100.00
2024-03-27T19:44:45.059Z,100.00
2024-03-27T19:47:12.056Z,100.00
2024-03-27T19:49:39.059Z,100.00
2024-03-27T19:52:15.948Z,100.00
2024-03-27T19:54:50.995Z,100.00
2024-03-27T19:57:18.111Z,100.00
2024-03-27T19:59:44.990Z,100.00
2024-03-27T20:02:11.931Z,100.00
2024-03-27T20:04:39.503Z,100.00
2024-03-27T20:07:06.583Z,100.00
2024-03-27T20:09:33.890Z,100.00
2024-03-27T20:12:01.200Z,100.00
2024-03-27T20:14:28.177Z,100.00
2024-03-27T20:16:55.272Z,100.00
2024-03-27T20:19:22.606Z,100.00
2024-03-27T20:21:50.104Z,100.00
2024-03-27T20:24:17.187Z,100.00
2024-03-27T20:26:44.180Z,100.00
2024-03-27T20:29:13.480Z,100.00
2024-03-27T20:31:40.899Z,100.00
2024-03-27T20:34:07.678Z,100.00
2024-03-27T20:36:34.947Z,100.00
2024-03-27T20:39:02.194Z,100.00
2024-03-27T20:41:29.425Z,100.00
2024-03-27T20:43:56.419Z,100.00
2024-03-27T20:46:23.646Z,100.00
2024-03-27T20:48:50.625Z,100.00
2024-03-27T20:51:18.153Z,100.00
2024-03-27T20:53:45.316Z,100.00
2024-03-27T20:56:12.315Z,100.00
2024-03-27T20:58:41.384Z,100.00
2024-03-27T21:01:08.706Z,100.00
2024-03-27T21:03:35.567Z,100.00
2024-03-27T21:06:02.667Z,100.00
2024-03-27T21:08:32.230Z,100.00
2024-03-27T21:10:59.091Z,100.00
2024-03-27T21:13:25.813Z,100.00
2024-03-27T21:15:52.788Z,100.00
2024-03-27T21:18:20.088Z,100.00
2024-03-27T21:20:47.009Z,100.00
2024-03-27T21:23:14.109Z,100.00
2024-03-27T21:25:40.880Z,100.00
2024-03-27T21:28:07.599Z,100.00
2024-03-27T21:30:34.361Z,100.00
2024-03-27T21:33:01.455Z,100.00
2024-03-27T21:35:28.311Z,100.00
2024-03-27T21:37:55.645Z,100.00
2024-03-27T21:40:22.540Z,100.00
2024-03-27T21:42:49.348Z,100.00
2024-03-27T21:45:16.688Z,100.00
2024-03-27T21:47:43.536Z,100.00
2024-03-27T21:50:13.492Z,100.00
2024-03-27T21:52:40.520Z,100.00
2024-03-27T21:55:07.921Z,100.00
2024-03-27T21:57:35.085Z,100.00
2024-03-27T22:00:02.200Z,100.00
2024-03-27T22:02:29.656Z,100.00
2024-03-27T22:04:56.475Z,100.00
2024-03-27T22:07:23.604Z,100.00
2024-03-27T22:09:52.831Z,100.00
2024-03-27T22:12:21.257Z,100.00
2024-03-27T22:14:48.205Z,100.00
2024-03-27T22:17:14.898Z,100.00
2024-03-27T22:19:41.614Z,100.00
2024-03-27T22:22:08.828Z,100.00
2024-03-27T22:24:36.732Z,100.00
2024-03-27T22:27:03.887Z,100.00
2024-03-27T22:29:30.758Z,100.00
2024-03-27T22:31:57.509Z,100.00
2024-03-27T22:34:24.373Z,100.00
2024-03-27T22:36:51.087Z,100.00
2024-03-27T22:39:17.910Z,100.00
2024-03-27T22:41:44.702Z,100.00
2024-03-27T22:44:13.314Z,100.00
2024-03-27T22:46:40.214Z,100.00
2024-03-27T22:49:06.804Z,100.00
2024-03-27T22:51:33.725Z,100.00
2024-03-27T22:54:00.394Z,100.00
2024-03-27T22:56:27.084Z,100.00
2024-03-27T22:58:54.154Z,100.00
2024-03-27T23:01:21.203Z,100.00
2024-03-27T23:03:47.822Z,100.00
2024-03-27T23:06:14.616Z,100.00
2024-03-27T23:08:41.408Z,100.00
2024-03-27T23:11:08.539Z,100.00
2024-03-27T23:13:36.836Z,100.00
2024-03-27T23:16:04.196Z,100.00
2024-03-27T23:18:31.320Z,100.00
2024-03-27T23:20:58.757Z,100.00
2024-03-27T23:23:25.820Z,100.00
2024-03-27T23:25:52.496Z,100.00
2024-03-27T23:28:19.564Z,100.00
2024-03-27T23:30:46.681Z,100.00
2024-03-27T23:33:13.480Z,100.00
2024-03-27T23:35:40.648Z,100.00
2024-03-27T23:38:07.387Z,100.00
2024-03-27T23:40:34.415Z,100.00
2024-03-27T23:43:01.156Z,100.00
2024-03-27T23:45:27.834Z,100.00
2024-03-27T23:47:54.748Z,100.00
2024-03-27T23:50:21.437Z,100.00
2024-03-27T23:52:48.381Z,100.00
2024-03-27T23:55:15.119Z,100.00
2024-03-27T23:57:41.782Z,100.00
